sensor_id;sensor_type;location;lat;lon;timestamp;P1;durP1;ratioP1;P2;durP2;ratioP2
47365;SDS011;33105;47.964;7.982;2022-08-21T00:00:40;5.50;;;1.20;;
47365;SDS011;33105;47.964;7.982;2022-08-21T00:03:42;1.88;;;1.17;;
47365;SDS011;33105;47.964;7.982;2022-08-21T00:06:43;4.57;;;1.25;;
47365;SDS011;33105;47.964;7.982;2022-08-21T00:09:44;5.78;;;1.42;;
47365;SDS011;33105;47.964;7.982;2022-08-21T00:12:46;2.65;;;1.20;;
47365;SDS011;33105;47.964;7.982;2022-08-21T00:15:48;6.38;;;1.20;;
47365;SDS011;33105;47.964;7.982;2022-08-21T00:18:50;5.13;;;1.02;;
47365;SDS011;33105;47.964;7.982;2022-08-21T00:21:52;3.40;;;1.17;;
47365;SDS011;33105;47.964;7.982;2022-08-21T00:24:54;1.30;;;1.17;;
47365;SDS011;33105;47.964;7.982;2022-08-21T00:27:55;2.70;;;1.30;;
47365;SDS011;33105;47.964;7.982;2022-08-21T00:30:57;2.65;;;1.10;;
47365;SDS011;33105;47.964;7.982;2022-08-21T00:33:59;3.13;;;1.30;;
47365;SDS011;33105;47.964;7.982;2022-08-21T00:37:01;1.13;;;0.90;;
47365;SDS011;33105;47.964;7.982;2022-08-21T00:40:02;2.30;;;1.27;;
47365;SDS011;33105;47.964;7.982;2022-08-21T00:43:04;3.92;;;1.30;;
47365;SDS011;33105;47.964;7.982;2022-08-21T00:46:08;2.15;;;1.20;;
47365;SDS011;33105;47.964;7.982;2022-08-21T00:49:10;2.97;;;1.30;;
47365;SDS011;33105;47.964;7.982;2022-08-21T00:52:13;2.72;;;1.20;;
47365;SDS011;33105;47.964;7.982;2022-08-21T00:55:19;2.67;;;1.13;;
47365;SDS011;33105;47.964;7.982;2022-08-21T00:58:23;4.43;;;1.17;;
47365;SDS011;33105;47.964;7.982;2022-08-21T01:01:27;4.22;;;1.40;;
47365;SDS011;33105;47.964;7.982;2022-08-21T01:04:28;5.03;;;1.30;;
47365;SDS011;33105;47.964;7.982;2022-08-21T01:07:29;2.28;;;1.15;;
47365;SDS011;33105;47.964;7.982;2022-08-21T01:10:31;7.25;;;1.50;;
47365;SDS011;33105;47.964;7.982;2022-08-21T01:13:35;3.00;;;1.20;;
47365;SDS011;33105;47.964;7.982;2022-08-21T01:16:38;4.63;;;1.30;;
47365;SDS011;33105;47.964;7.982;2022-08-21T01:19:41;3.85;;;1.35;;
47365;SDS011;33105;47.964;7.982;2022-08-21T01:22:43;4.85;;;1.67;;
47365;SDS011;33105;47.964;7.982;2022-08-21T01:25:44;2.60;;;0.90;;
47365;SDS011;33105;47.964;7.982;2022-08-21T01:28:49;2.47;;;1.35;;
47365;SDS011;33105;47.964;7.982;2022-08-21T01:31:58;3.13;;;1.25;;
47365;SDS011;33105;47.964;7.982;2022-08-21T01:35:04;2.85;;;1.27;;
47365;SDS011;33105;47.964;7.982;2022-08-21T01:38:05;2.65;;;1.20;;
47365;SDS011;33105;47.964;7.982;2022-08-21T01:41:07;2.13;;;1.10;;
47365;SDS011;33105;47.964;7.982;2022-08-21T01:44:08;3.45;;;1.30;;
47365;SDS011;33105;47.964;7.982;2022-08-21T01:47:10;2.53;;;0.98;;
47365;SDS011;33105;47.964;7.982;2022-08-21T01:50:16;15.18;;;1.42;;
47365;SDS011;33105;47.964;7.982;2022-08-21T01:53:19;4.18;;;1.65;;
47365;SDS011;33105;47.964;7.982;2022-08-21T01:56:20;3.45;;;1.20;;
47365;SDS011;33105;47.964;7.982;2022-08-21T01:59:22;3.13;;;1.40;;
47365;SDS011;33105;47.964;7.982;2022-08-21T02:02:24;2.92;;;1.33;;
47365;SDS011;33105;47.964;7.982;2022-08-21T02:05:26;5.93;;;1.30;;
47365;SDS011;33105;47.964;7.982;2022-08-21T02:08:28;2.60;;;1.00;;
47365;SDS011;33105;47.964;7.982;2022-08-21T02:11:29;2.03;;;1.20;;
47365;SDS011;33105;47.964;7.982;2022-08-21T02:14:30;1.52;;;1.30;;
47365;SDS011;33105;47.964;7.982;2022-08-21T02:17:42;3.38;;;1.20;;
47365;SDS011;33105;47.964;7.982;2022-08-21T02:20:49;2.58;;;1.20;;
47365;SDS011;33105;47.964;7.982;2022-08-21T02:23:50;3.03;;;1.30;;
47365;SDS011;33105;47.964;7.982;2022-08-21T02:26:52;3.13;;;1.30;;
47365;SDS011;33105;47.964;7.982;2022-08-21T02:29:56;3.15;;;1.30;;
47365;SDS011;33105;47.964;7.982;2022-08-21T02:32:58;2.78;;;1.02;;
47365;SDS011;33105;47.964;7.982;2022-08-21T02:36:00;2.03;;;1.10;;
47365;SDS011;33105;47.964;7.982;2022-08-21T02:39:02;2.45;;;1.40;;
47365;SDS011;33105;47.964;7.982;2022-08-21T02:42:03;2.35;;;1.10;;
47365;SDS011;33105;47.964;7.982;2022-08-21T02:45:05;3.72;;;1.30;;
47365;SDS011;33105;47.964;7.982;2022-08-21T02:48:09;3.53;;;1.35;;
47365;SDS011;33105;47.964;7.982;2022-08-21T02:51:13;4.97;;;1.10;;
47365;SDS011;33105;47.964;7.982;2022-08-21T02:54:18;3.00;;;1.10;;
47365;SDS011;33105;47.964;7.982;2022-08-21T02:57:19;1.42;;;1.13;;
47365;SDS011;33105;47.964;7.982;2022-08-21T03:00:21;8.15;;;1.17;;
47365;SDS011;33105;47.964;7.982;2022-08-21T03:03:24;5.15;;;1.50;;
47365;SDS011;33105;47.964;7.982;2022-08-21T03:06:27;2.88;;;1.50;;
47365;SDS011;33105;47.964;7.982;2022-08-21T03:09:30;6.45;;;1.45;;
47365;SDS011;33105;47.964;7.982;2022-08-21T03:12:31;5.25;;;1.33;;
47365;SDS011;33105;47.964;7.982;2022-08-21T03:15:32;2.85;;;1.42;;
47365;SDS011;33105;47.964;7.982;2022-08-21T03:18:34;4.45;;;1.65;;
47365;SDS011;33105;47.964;7.982;2022-08-21T03:21:36;4.22;;;1.70;;
47365;SDS011;33105;47.964;7.982;2022-08-21T03:24:37;7.78;;;1.83;;
47365;SDS011;33105;47.964;7.982;2022-08-21T03:27:38;4.53;;;1.63;;
47365;SDS011;33105;47.964;7.982;2022-08-21T03:30:41;3.13;;;1.30;;
47365;SDS011;33105;47.964;7.982;2022-08-21T03:33:47;4.38;;;1.52;;
47365;SDS011;33105;47.964;7.982;2022-08-21T03:36:48;4.05;;;1.13;;
47365;SDS011;33105;47.964;7.982;2022-08-21T03:39:50;4.13;;;1.50;;
47365;SDS011;33105;47.964;7.982;2022-08-21T03:42:52;4.95;;;1.80;;
47365;SDS011;33105;47.964;7.982;2022-08-21T03:45:53;4.53;;;1.52;;
47365;SDS011;33105;47.964;7.982;2022-08-21T03:48:55;4.05;;;1.27;;
47365;SDS011;33105;47.964;7.982;2022-08-21T03:51:56;3.70;;;1.80;;
47365;SDS011;33105;47.964;7.982;2022-08-21T03:54:58;2.40;;;1.40;;
47365;SDS011;33105;47.964;7.982;2022-08-21T03:57:59;4.32;;;1.55;;
47365;SDS011;33105;47.964;7.982;2022-08-21T04:01:01;2.67;;;1.40;;
47365;SDS011;33105;47.964;7.982;2022-08-21T04:04:04;5.78;;;1.33;;
47365;SDS011;33105;47.964;7.982;2022-08-21T04:07:06;6.97;;;2.20;;
47365;SDS011;33105;47.964;7.982;2022-08-21T04:10:08;5.00;;;1.50;;
47365;SDS011;33105;47.964;7.982;2022-08-21T04:13:09;4.10;;;1.60;;
47365;SDS011;33105;47.964;7.982;2022-08-21T04:16:12;1.90;;;1.30;;
47365;SDS011;33105;47.964;7.982;2022-08-21T04:19:14;2.13;;;1.33;;
47365;SDS011;33105;47.964;7.982;2022-08-21T04:22:16;5.43;;;1.75;;
47365;SDS011;33105;47.964;7.982;2022-08-21T04:25:18;2.95;;;1.67;;
47365;SDS011;33105;47.964;7.982;2022-08-21T04:28:22;3.45;;;1.52;;
47365;SDS011;33105;47.964;7.982;2022-08-21T04:31:25;5.45;;;1.50;;
47365;SDS011;33105;47.964;7.982;2022-08-21T04:34:28;3.22;;;1.35;;
47365;SDS011;33105;47.964;7.982;2022-08-21T04:37:30;2.97;;;1.40;;
47365;SDS011;33105;47.964;7.982;2022-08-21T04:40:32;5.45;;;1.48;;
47365;SDS011;33105;47.964;7.982;2022-08-21T04:43:34;2.45;;;1.50;;
47365;SDS011;33105;47.964;7.982;2022-08-21T04:46:36;4.30;;;1.30;;
47365;SDS011;33105;47.964;7.982;2022-08-21T04:49:37;5.28;;;1.63;;
47365;SDS011;33105;47.964;7.982;2022-08-21T04:52:38;3.85;;;1.75;;
47365;SDS011;33105;47.964;7.982;2022-08-21T04:55:40;4.28;;;1.35;;
47365;SDS011;33105;47.964;7.982;2022-08-21T04:58:42;2.55;;;1.52;;
47365;SDS011;33105;47.964;7.982;2022-08-21T05:01:44;3.92;;;1.75;;
47365;SDS011;33105;47.964;7.982;2022-08-21T05:04:48;7.05;;;2.58;;
47365;SDS011;33105;47.964;7.982;2022-08-21T05:07:53;6.22;;;1.90;;
47365;SDS011;33105;47.964;7.982;2022-08-21T05:10:54;3.67;;;1.77;;
47365;SDS011;33105;47.964;7.982;2022-08-21T05:13:56;4.40;;;1.48;;
47365;SDS011;33105;47.964;7.982;2022-08-21T05:16:57;3.88;;;1.58;;
47365;SDS011;33105;47.964;7.982;2022-08-21T05:19:59;3.72;;;1.63;;
47365;SDS011;33105;47.964;7.982;2022-08-21T05:23:00;3.50;;;1.70;;
47365;SDS011;33105;47.964;7.982;2022-08-21T05:26:02;4.95;;;1.77;;
47365;SDS011;33105;47.964;7.982;2022-08-21T05:29:05;5.00;;;1.70;;
47365;SDS011;33105;47.964;7.982;2022-08-21T05:32:10;8.30;;;1.88;;
47365;SDS011;33105;47.964;7.982;2022-08-21T05:35:13;4.60;;;1.63;;
47365;SDS011;33105;47.964;7.982;2022-08-21T05:38:14;3.78;;;1.65;;
47365;SDS011;33105;47.964;7.982;2022-08-21T05:41:15;3.80;;;1.70;;
47365;SDS011;33105;47.964;7.982;2022-08-21T05:44:17;5.05;;;1.50;;
47365;SDS011;33105;47.964;7.982;2022-08-21T05:47:18;6.53;;;2.10;;
47365;SDS011;33105;47.964;7.982;2022-08-21T05:50:19;5.60;;;1.52;;
47365;SDS011;33105;47.964;7.982;2022-08-21T05:53:22;2.33;;;1.45;;
47365;SDS011;33105;47.964;7.982;2022-08-21T05:56:24;3.83;;;1.65;;
47365;SDS011;33105;47.964;7.982;2022-08-21T05:59:25;5.80;;;1.60;;
47365;SDS011;33105;47.964;7.982;2022-08-21T06:02:28;5.45;;;1.60;;
47365;SDS011;33105;47.964;7.982;2022-08-21T06:05:29;4.53;;;1.58;;
47365;SDS011;33105;47.964;7.982;2022-08-21T06:08:31;9.75;;;2.47;;
47365;SDS011;33105;47.964;7.982;2022-08-21T06:11:32;2.92;;;1.52;;
47365;SDS011;33105;47.964;7.982;2022-08-21T06:14:34;5.75;;;1.52;;
47365;SDS011;33105;47.964;7.982;2022-08-21T06:17:36;2.95;;;1.52;;
47365;SDS011;33105;47.964;7.982;2022-08-21T06:20:38;5.60;;;1.80;;
47365;SDS011;33105;47.964;7.982;2022-08-21T06:23:41;4.80;;;1.92;;
47365;SDS011;33105;47.964;7.982;2022-08-21T06:26:43;5.45;;;1.77;;
47365;SDS011;33105;47.964;7.982;2022-08-21T06:29:44;6.53;;;2.15;;
47365;SDS011;33105;47.964;7.982;2022-08-21T06:32:46;5.70;;;2.35;;
47365;SDS011;33105;47.964;7.982;2022-08-21T06:35:47;5.45;;;2.50;;
47365;SDS011;33105;47.964;7.982;2022-08-21T06:38:49;6.28;;;2.35;;
47365;SDS011;33105;47.964;7.982;2022-08-21T06:41:50;7.72;;;2.63;;
47365;SDS011;33105;47.964;7.982;2022-08-21T06:44:51;5.43;;;2.80;;
47365;SDS011;33105;47.964;7.982;2022-08-21T06:47:52;8.82;;;3.08;;
47365;SDS011;33105;47.964;7.982;2022-08-21T06:50:54;8.43;;;2.75;;
47365;SDS011;33105;47.964;7.982;2022-08-21T06:53:56;5.90;;;2.60;;
47365;SDS011;33105;47.964;7.982;2022-08-21T06:56:57;8.85;;;2.75;;
47365;SDS011;33105;47.964;7.982;2022-08-21T06:59:59;6.60;;;2.30;;
47365;SDS011;33105;47.964;7.982;2022-08-21T07:03:00;4.82;;;2.00;;
47365;SDS011;33105;47.964;7.982;2022-08-21T07:06:01;8.68;;;2.20;;
47365;SDS011;33105;47.964;7.982;2022-08-21T07:09:03;6.22;;;2.08;;
47365;SDS011;33105;47.964;7.982;2022-08-21T07:12:04;5.78;;;2.15;;
47365;SDS011;33105;47.964;7.982;2022-08-21T07:15:06;7.20;;;2.20;;
47365;SDS011;33105;47.964;7.982;2022-08-21T07:18:08;5.40;;;2.53;;
47365;SDS011;33105;47.964;7.982;2022-08-21T07:21:09;6.00;;;2.28;;
47365;SDS011;33105;47.964;7.982;2022-08-21T07:24:10;5.45;;;2.30;;
47365;SDS011;33105;47.964;7.982;2022-08-21T07:27:11;8.50;;;2.40;;
47365;SDS011;33105;47.964;7.982;2022-08-21T07:30:13;7.70;;;2.50;;
47365;SDS011;33105;47.964;7.982;2022-08-21T07:33:14;8.18;;;2.72;;
47365;SDS011;33105;47.964;7.982;2022-08-21T07:36:15;7.38;;;2.53;;
47365;SDS011;33105;47.964;7.982;2022-08-21T07:39:16;6.03;;;2.70;;
47365;SDS011;33105;47.964;7.982;2022-08-21T07:42:17;5.57;;;2.28;;
47365;SDS011;33105;47.964;7.982;2022-08-21T07:45:20;6.00;;;2.13;;
47365;SDS011;33105;47.964;7.982;2022-08-21T07:48:22;10.88;;;2.60;;
47365;SDS011;33105;47.964;7.982;2022-08-21T07:51:24;4.93;;;1.98;;
47365;SDS011;33105;47.964;7.982;2022-08-21T07:54:28;4.00;;;2.10;;
47365;SDS011;33105;47.964;7.982;2022-08-21T07:57:29;4.55;;;1.95;;
47365;SDS011;33105;47.964;7.982;2022-08-21T08:00:31;6.60;;;2.20;;
47365;SDS011;33105;47.964;7.982;2022-08-21T08:03:32;5.93;;;2.10;;
47365;SDS011;33105;47.964;7.982;2022-08-21T08:06:34;4.32;;;1.98;;
47365;SDS011;33105;47.964;7.982;2022-08-21T08:09:35;7.13;;;1.98;;
47365;SDS011;33105;47.964;7.982;2022-08-21T08:12:37;5.28;;;2.10;;
47365;SDS011;33105;47.964;7.982;2022-08-21T08:15:40;7.95;;;2.08;;
47365;SDS011;33105;47.964;7.982;2022-08-21T08:18:41;3.65;;;1.73;;
47365;SDS011;33105;47.964;7.982;2022-08-21T08:21:42;3.40;;;1.70;;
47365;SDS011;33105;47.964;7.982;2022-08-21T08:24:44;5.72;;;1.88;;
47365;SDS011;33105;47.964;7.982;2022-08-21T08:27:45;7.75;;;2.42;;
47365;SDS011;33105;47.964;7.982;2022-08-21T08:30:47;5.03;;;1.92;;
47365;SDS011;33105;47.964;7.982;2022-08-21T08:33:49;7.55;;;2.00;;
47365;SDS011;33105;47.964;7.982;2022-08-21T08:36:51;5.32;;;2.00;;
47365;SDS011;33105;47.964;7.982;2022-08-21T08:39:52;8.20;;;2.15;;
47365;SDS011;33105;47.964;7.982;2022-08-21T08:42:54;7.05;;;2.40;;
47365;SDS011;33105;47.964;7.982;2022-08-21T08:45:56;8.30;;;2.60;;
47365;SDS011;33105;47.964;7.982;2022-08-21T08:49:01;5.32;;;1.90;;
47365;SDS011;33105;47.964;7.982;2022-08-21T08:55:23;6.95;;;1.95;;
47365;SDS011;33105;47.964;7.982;2022-08-21T08:58:33;6.55;;;2.08;;
47365;SDS011;33105;47.964;7.982;2022-08-21T09:01:38;7.90;;;2.00;;
47365;SDS011;33105;47.964;7.982;2022-08-21T09:04:39;9.07;;;2.38;;
47365;SDS011;33105;47.964;7.982;2022-08-21T09:07:47;8.30;;;2.38;;
47365;SDS011;33105;47.964;7.982;2022-08-21T09:11:03;8.48;;;2.30;;
47365;SDS011;33105;47.964;7.982;2022-08-21T09:14:14;5.63;;;2.40;;
47365;SDS011;33105;47.964;7.982;2022-08-21T09:21:23;8.35;;;2.30;;
47365;SDS011;33105;47.964;7.982;2022-08-21T09:24:33;6.97;;;2.23;;
47365;SDS011;33105;47.964;7.982;2022-08-21T09:27:42;5.65;;;2.08;;
47365;SDS011;33105;47.964;7.982;2022-08-21T09:30:43;7.53;;;2.10;;
47365;SDS011;33105;47.964;7.982;2022-08-21T09:33:45;7.70;;;1.90;;
47365;SDS011;33105;47.964;7.982;2022-08-21T09:36:49;7.22;;;2.20;;
47365;SDS011;33105;47.964;7.982;2022-08-21T09:39:51;4.95;;;2.00;;
47365;SDS011;33105;47.964;7.982;2022-08-21T09:42:54;6.93;;;1.83;;
47365;SDS011;33105;47.964;7.982;2022-08-21T09:49:12;5.55;;;1.67;;
47365;SDS011;33105;47.964;7.982;2022-08-21T09:52:28;8.75;;;2.03;;
47365;SDS011;33105;47.964;7.982;2022-08-21T09:58:53;9.77;;;2.30;;
47365;SDS011;33105;47.964;7.982;2022-08-21T10:01:54;5.25;;;2.08;;
47365;SDS011;33105;47.964;7.982;2022-08-21T10:05:15;6.45;;;2.03;;
47365;SDS011;33105;47.964;7.982;2022-08-21T10:08:17;6.60;;;1.73;;
47365;SDS011;33105;47.964;7.982;2022-08-21T10:11:23;6.60;;;1.90;;
47365;SDS011;33105;47.964;7.982;2022-08-21T10:14:33;6.22;;;1.60;;
47365;SDS011;33105;47.964;7.982;2022-08-21T10:17:37;4.07;;;1.70;;
47365;SDS011;33105;47.964;7.982;2022-08-21T10:30:30;3.03;;;0.98;;
47365;SDS011;33105;47.964;7.982;2022-08-21T10:47:18;2.85;;;1.13;;
47365;SDS011;33105;47.964;7.982;2022-08-21T11:01:00;2.42;;;1.15;;
47365;SDS011;33105;47.964;7.982;2022-08-21T11:04:12;2.80;;;1.23;;
47365;SDS011;33105;47.964;7.982;2022-08-21T11:14:04;4.88;;;1.27;;
47365;SDS011;33105;47.964;7.982;2022-08-21T11:17:22;4.65;;;1.50;;
47365;SDS011;33105;47.964;7.982;2022-08-21T11:20:46;5.47;;;1.55;;
47365;SDS011;33105;47.964;7.982;2022-08-21T11:24:02;2.50;;;1.17;;
47365;SDS011;33105;47.964;7.982;2022-08-21T11:30:20;4.97;;;1.48;;
47365;SDS011;33105;47.964;7.982;2022-08-21T11:33:47;4.05;;;1.58;;
47365;SDS011;33105;47.964;7.982;2022-08-21T11:43:53;5.00;;;1.40;;
47365;SDS011;33105;47.964;7.982;2022-08-21T11:50:33;5.35;;;1.40;;
47365;SDS011;33105;47.964;7.982;2022-08-21T11:53:47;5.38;;;1.50;;
47365;SDS011;33105;47.964;7.982;2022-08-21T11:57:16;6.82;;;1.58;;
47365;SDS011;33105;47.964;7.982;2022-08-21T12:03:36;5.75;;;1.50;;
47365;SDS011;33105;47.964;7.982;2022-08-21T12:06:41;7.13;;;1.40;;
47365;SDS011;33105;47.964;7.982;2022-08-21T12:09:51;3.38;;;1.17;;
47365;SDS011;33105;47.964;7.982;2022-08-21T12:12:55;3.08;;;1.13;;
47365;SDS011;33105;47.964;7.982;2022-08-21T12:16:14;6.68;;;1.42;;
47365;SDS011;33105;47.964;7.982;2022-08-21T12:22:20;7.18;;;1.77;;
47365;SDS011;33105;47.964;7.982;2022-08-21T12:25:21;4.45;;;1.60;;
47365;SDS011;33105;47.964;7.982;2022-08-21T12:28:23;3.38;;;1.23;;
47365;SDS011;33105;47.964;7.982;2022-08-21T12:31:26;4.68;;;1.48;;
47365;SDS011;33105;47.964;7.982;2022-08-21T12:34:32;4.15;;;1.48;;
47365;SDS011;33105;47.964;7.982;2022-08-21T12:40:42;3.72;;;1.40;;
47365;SDS011;33105;47.964;7.982;2022-08-21T12:44:07;2.70;;;1.30;;
47365;SDS011;33105;47.964;7.982;2022-08-21T12:47:23;2.95;;;1.27;;
47365;SDS011;33105;47.964;7.982;2022-08-21T12:50:38;4.35;;;1.63;;
47365;SDS011;33105;47.964;7.982;2022-08-21T12:53:45;6.05;;;1.50;;
47365;SDS011;33105;47.964;7.982;2022-08-21T12:57:03;3.83;;;1.38;;
47365;SDS011;33105;47.964;7.982;2022-08-21T13:00:07;3.25;;;1.23;;
47365;SDS011;33105;47.964;7.982;2022-08-21T13:03:13;2.97;;;1.38;;
47365;SDS011;33105;47.964;7.982;2022-08-21T13:06:16;4.35;;;1.42;;
47365;SDS011;33105;47.964;7.982;2022-08-21T13:09:21;2.60;;;1.80;;
47365;SDS011;33105;47.964;7.982;2022-08-21T13:12:26;5.95;;;2.10;;
47365;SDS011;33105;47.964;7.982;2022-08-21T13:15:31;6.10;;;1.52;;
47365;SDS011;33105;47.964;7.982;2022-08-21T13:18:35;4.55;;;1.60;;
47365;SDS011;33105;47.964;7.982;2022-08-21T13:21:42;3.08;;;1.40;;
47365;SDS011;33105;47.964;7.982;2022-08-21T13:24:46;3.40;;;1.50;;
47365;SDS011;33105;47.964;7.982;2022-08-21T13:28:04;10.10;;;5.60;;
47365;SDS011;33105;47.964;7.982;2022-08-21T13:31:20;5.35;;;3.08;;
47365;SDS011;33105;47.964;7.982;2022-08-21T13:34:31;9.07;;;6.55;;
47365;SDS011;33105;47.964;7.982;2022-08-21T13:37:35;9.90;;;6.55;;
47365;SDS011;33105;47.964;7.982;2022-08-21T13:40:47;7.68;;;4.75;;
47365;SDS011;33105;47.964;7.982;2022-08-21T13:44:04;6.25;;;3.72;;
47365;SDS011;33105;47.964;7.982;2022-08-21T13:47:15;7.13;;;3.08;;
47365;SDS011;33105;47.964;7.982;2022-08-21T13:50:18;6.60;;;2.20;;
47365;SDS011;33105;47.964;7.982;2022-08-21T13:53:36;6.65;;;3.08;;
47365;SDS011;33105;47.964;7.982;2022-08-21T13:56:46;4.53;;;2.10;;
47365;SDS011;33105;47.964;7.982;2022-08-21T13:59:48;9.02;;;5.03;;
47365;SDS011;33105;47.964;7.982;2022-08-21T14:02:49;3.95;;;2.13;;
47365;SDS011;33105;47.964;7.982;2022-08-21T14:05:53;6.63;;;4.13;;
47365;SDS011;33105;47.964;7.982;2022-08-21T14:08:56;5.40;;;1.67;;
47365;SDS011;33105;47.964;7.982;2022-08-21T14:12:16;6.03;;;1.48;;
47365;SDS011;33105;47.964;7.982;2022-08-21T14:15:30;3.22;;;1.42;;
47365;SDS011;33105;47.964;7.982;2022-08-21T14:18:32;6.90;;;1.65;;
47365;SDS011;33105;47.964;7.982;2022-08-21T14:21:48;5.57;;;2.17;;
47365;SDS011;33105;47.964;7.982;2022-08-21T14:24:50;6.30;;;1.50;;
47365;SDS011;33105;47.964;7.982;2022-08-21T14:28:22;6.82;;;1.63;;
47365;SDS011;33105;47.964;7.982;2022-08-21T14:31:30;4.63;;;1.40;;
47365;SDS011;33105;47.964;7.982;2022-08-21T14:34:33;5.60;;;1.77;;
47365;SDS011;33105;47.964;7.982;2022-08-21T14:37:34;4.15;;;1.50;;
47365;SDS011;33105;47.964;7.982;2022-08-21T14:40:36;4.72;;;1.83;;
47365;SDS011;33105;47.964;7.982;2022-08-21T14:43:37;3.90;;;1.70;;
47365;SDS011;33105;47.964;7.982;2022-08-21T14:46:38;3.10;;;1.50;;
47365;SDS011;33105;47.964;7.982;2022-08-21T14:49:39;7.00;;;1.95;;
47365;SDS011;33105;47.964;7.982;2022-08-21T14:52:41;5.55;;;1.60;;
47365;SDS011;33105;47.964;7.982;2022-08-21T14:55:43;2.75;;;1.27;;
47365;SDS011;33105;47.964;7.982;2022-08-21T14:59:05;3.03;;;1.30;;
47365;SDS011;33105;47.964;7.982;2022-08-21T15:02:07;4.15;;;1.60;;
47365;SDS011;33105;47.964;7.982;2022-08-21T15:05:09;4.43;;;1.50;;
47365;SDS011;33105;47.964;7.982;2022-08-21T15:08:10;5.60;;;1.50;;
47365;SDS011;33105;47.964;7.982;2022-08-21T15:11:12;3.03;;;1.48;;
47365;SDS011;33105;47.964;7.982;2022-08-21T15:14:18;6.28;;;1.42;;
47365;SDS011;33105;47.964;7.982;2022-08-21T15:17:23;3.17;;;1.52;;
47365;SDS011;33105;47.964;7.982;2022-08-21T15:20:25;6.78;;;1.80;;
47365;SDS011;33105;47.964;7.982;2022-08-21T15:23:26;3.58;;;1.58;;
47365;SDS011;33105;47.964;7.982;2022-08-21T15:26:27;3.00;;;1.58;;
47365;SDS011;33105;47.964;7.982;2022-08-21T15:29:29;3.40;;;1.30;;
47365;SDS011;33105;47.964;7.982;2022-08-21T15:32:32;4.47;;;1.40;;
47365;SDS011;33105;47.964;7.982;2022-08-21T15:35:33;3.25;;;1.30;;
47365;SDS011;33105;47.964;7.982;2022-08-21T15:38:35;4.68;;;1.42;;
47365;SDS011;33105;47.964;7.982;2022-08-21T15:41:36;5.40;;;1.65;;
47365;SDS011;33105;47.964;7.982;2022-08-21T15:44:38;7.32;;;1.73;;
47365;SDS011;33105;47.964;7.982;2022-08-21T15:47:42;4.20;;;1.33;;
47365;SDS011;33105;47.964;7.982;2022-08-21T15:50:45;3.78;;;1.45;;
47365;SDS011;33105;47.964;7.982;2022-08-21T15:53:46;3.72;;;1.38;;
47365;SDS011;33105;47.964;7.982;2022-08-21T15:56:48;5.38;;;1.63;;
47365;SDS011;33105;47.964;7.982;2022-08-21T15:59:53;4.20;;;1.60;;
47365;SDS011;33105;47.964;7.982;2022-08-21T16:02:57;2.78;;;1.23;;
47365;SDS011;33105;47.964;7.982;2022-08-21T16:05:59;3.60;;;1.52;;
47365;SDS011;33105;47.964;7.982;2022-08-21T16:09:01;3.35;;;1.35;;
47365;SDS011;33105;47.964;7.982;2022-08-21T16:12:02;4.93;;;1.70;;
47365;SDS011;33105;47.964;7.982;2022-08-21T16:15:06;4.13;;;1.60;;
47365;SDS011;33105;47.964;7.982;2022-08-21T16:18:10;4.35;;;1.40;;
47365;SDS011;33105;47.964;7.982;2022-08-21T16:21:12;4.53;;;1.20;;
47365;SDS011;33105;47.964;7.982;2022-08-21T16:24:13;3.70;;;1.48;;
47365;SDS011;33105;47.964;7.982;2022-08-21T16:27:14;2.90;;;1.30;;
47365;SDS011;33105;47.964;7.982;2022-08-21T16:30:18;4.28;;;1.58;;
47365;SDS011;33105;47.964;7.982;2022-08-21T16:33:22;5.68;;;1.40;;
47365;SDS011;33105;47.964;7.982;2022-08-21T16:36:30;1.88;;;1.20;;
47365;SDS011;33105;47.964;7.982;2022-08-21T16:39:31;4.38;;;1.60;;
47365;SDS011;33105;47.964;7.982;2022-08-21T16:42:33;3.63;;;1.20;;
47365;SDS011;33105;47.964;7.982;2022-08-21T16:45:35;2.92;;;1.38;;
47365;SDS011;33105;47.964;7.982;2022-08-21T16:48:38;3.22;;;1.33;;
47365;SDS011;33105;47.964;7.982;2022-08-21T16:51:40;2.85;;;1.40;;
47365;SDS011;33105;47.964;7.982;2022-08-21T16:54:41;3.80;;;1.30;;
47365;SDS011;33105;47.964;7.982;2022-08-21T16:57:43;2.20;;;1.33;;
47365;SDS011;33105;47.964;7.982;2022-08-21T17:00:44;3.35;;;1.20;;
47365;SDS011;33105;47.964;7.982;2022-08-21T17:03:47;2.80;;;1.33;;
47365;SDS011;33105;47.964;7.982;2022-08-21T17:06:51;3.55;;;1.50;;
47365;SDS011;33105;47.964;7.982;2022-08-21T17:09:53;4.78;;;1.55;;
47365;SDS011;33105;47.964;7.982;2022-08-21T17:12:55;2.90;;;1.48;;
47365;SDS011;33105;47.964;7.982;2022-08-21T17:15:58;4.65;;;1.50;;
47365;SDS011;33105;47.964;7.982;2022-08-21T17:18:59;2.67;;;1.67;;
47365;SDS011;33105;47.964;7.982;2022-08-21T17:22:00;4.00;;;1.63;;
47365;SDS011;33105;47.964;7.982;2022-08-21T17:25:02;2.63;;;1.30;;
47365;SDS011;33105;47.964;7.982;2022-08-21T17:28:04;3.08;;;1.50;;
47365;SDS011;33105;47.964;7.982;2022-08-21T17:31:06;4.18;;;1.40;;
47365;SDS011;33105;47.964;7.982;2022-08-21T17:34:09;5.25;;;1.90;;
47365;SDS011;33105;47.964;7.982;2022-08-21T17:37:11;3.35;;;1.73;;
47365;SDS011;33105;47.964;7.982;2022-08-21T17:40:13;3.88;;;1.73;;
47365;SDS011;33105;47.964;7.982;2022-08-21T17:43:15;3.10;;;1.70;;
47365;SDS011;33105;47.964;7.982;2022-08-21T17:46:18;7.10;;;1.70;;
47365;SDS011;33105;47.964;7.982;2022-08-21T17:49:21;6.38;;;1.58;;
47365;SDS011;33105;47.964;7.982;2022-08-21T17:52:23;6.63;;;1.10;;
47365;SDS011;33105;47.964;7.982;2022-08-21T17:55:24;2.00;;;1.50;;
47365;SDS011;33105;47.964;7.982;2022-08-21T17:58:27;8.02;;;1.50;;
47365;SDS011;33105;47.964;7.982;2022-08-21T18:01:30;5.38;;;1.42;;
47365;SDS011;33105;47.964;7.982;2022-08-21T18:04:34;5.63;;;1.70;;
47365;SDS011;33105;47.964;7.982;2022-08-21T18:07:36;4.63;;;1.40;;
47365;SDS011;33105;47.964;7.982;2022-08-21T18:10:38;4.03;;;1.50;;
47365;SDS011;33105;47.964;7.982;2022-08-21T18:13:42;3.05;;;1.55;;
47365;SDS011;33105;47.964;7.982;2022-08-21T18:16:43;4.05;;;1.63;;
47365;SDS011;33105;47.964;7.982;2022-08-21T18:19:45;3.67;;;1.38;;
47365;SDS011;33105;47.964;7.982;2022-08-21T18:22:46;5.18;;;1.42;;
47365;SDS011;33105;47.964;7.982;2022-08-21T18:25:48;3.78;;;1.60;;
47365;SDS011;33105;47.964;7.982;2022-08-21T18:28:53;5.93;;;1.70;;
47365;SDS011;33105;47.964;7.982;2022-08-21T18:31:59;3.97;;;1.50;;
47365;SDS011;33105;47.964;7.982;2022-08-21T18:35:03;5.70;;;1.70;;
47365;SDS011;33105;47.964;7.982;2022-08-21T18:38:07;2.50;;;1.45;;
47365;SDS011;33105;47.964;7.982;2022-08-21T18:41:09;4.75;;;2.00;;
47365;SDS011;33105;47.964;7.982;2022-08-21T18:44:11;4.93;;;1.85;;
47365;SDS011;33105;47.964;7.982;2022-08-21T18:47:24;6.07;;;1.70;;
47365;SDS011;33105;47.964;7.982;2022-08-21T18:50:32;4.75;;;1.95;;
47365;SDS011;33105;47.964;7.982;2022-08-21T18:53:34;5.70;;;1.80;;
47365;SDS011;33105;47.964;7.982;2022-08-21T18:56:35;6.22;;;1.98;;
47365;SDS011;33105;47.964;7.982;2022-08-21T18:59:37;5.93;;;1.83;;
47365;SDS011;33105;47.964;7.982;2022-08-21T19:02:39;5.68;;;1.77;;
47365;SDS011;33105;47.964;7.982;2022-08-21T19:05:41;4.82;;;1.75;;
47365;SDS011;33105;47.964;7.982;2022-08-21T19:08:43;5.32;;;1.70;;
47365;SDS011;33105;47.964;7.982;2022-08-21T19:11:45;4.25;;;1.63;;
47365;SDS011;33105;47.964;7.982;2022-08-21T19:14:46;3.00;;;1.70;;
47365;SDS011;33105;47.964;7.982;2022-08-21T19:17:47;2.90;;;1.50;;
47365;SDS011;33105;47.964;7.982;2022-08-21T19:20:51;5.75;;;1.58;;
47365;SDS011;33105;47.964;7.982;2022-08-21T19:23:53;4.50;;;1.52;;
47365;SDS011;33105;47.964;7.982;2022-08-21T19:26:56;5.20;;;1.60;;
47365;SDS011;33105;47.964;7.982;2022-08-21T19:29:57;8.40;;;1.70;;
47365;SDS011;33105;47.964;7.982;2022-08-21T19:32:58;3.95;;;1.60;;
47365;SDS011;33105;47.964;7.982;2022-08-21T19:36:00;5.07;;;1.75;;
47365;SDS011;33105;47.964;7.982;2022-08-21T19:39:02;7.07;;;1.58;;
47365;SDS011;33105;47.964;7.982;2022-08-21T19:42:04;3.58;;;1.90;;
47365;SDS011;33105;47.964;7.982;2022-08-21T19:45:06;3.58;;;1.40;;